sensor_id;sensor_type;location;lat;lon;timestamp;temperature;humidity
26821;DHT22;37186;51.394;5.454;2022-09-06T00:02:56;23.30;62.00
26821;DHT22;37186;51.394;5.454;2022-09-06T00:05:57;23.30;61.70
26821;DHT22;37186;51.394;5.454;2022-09-06T00:08:57;23.30;62.30
26821;DHT22;37186;51.394;5.454;2022-09-06T00:11:59;23.20;61.70
26821;DHT22;37186;51.394;5.454;2022-09-06T00:14:59;23.20;62.20
26821;DHT22;37186;51.394;5.454;2022-09-06T00:18:01;23.10;62.00
26821;DHT22;37186;51.394;5.454;2022-09-06T00:21:04;23.10;61.80
26821;DHT22;37186;51.394;5.454;2022-09-06T00:24:12;23.10;61.60
26821;DHT22;37186;51.394;5.454;2022-09-06T00:27:12;23.10;61.90
26821;DHT22;37186;51.394;5.454;2022-09-06T00:30:13;23.10;62.50
26821;DHT22;37186;51.394;5.454;2022-09-06T00:33:13;23.00;62.00
26821;DHT22;37186;51.394;5.454;2022-09-06T00:36:14;23.00;62.40
26821;DHT22;37186;51.394;5.454;2022-09-06T00:39:15;23.00;62.30
26821;DHT22;37186;51.394;5.454;2022-09-06T00:42:15;23.00;62.20
26821;DHT22;37186;51.394;5.454;2022-09-06T00:45:16;22.90;61.80
26821;DHT22;37186;51.394;5.454;2022-09-06T00:48:17;22.90;62.00
26821;DHT22;37186;51.394;5.454;2022-09-06T00:51:19;22.90;62.10
26821;DHT22;37186;51.394;5.454;2022-09-06T00:54:20;22.90;62.00
26821;DHT22;37186;51.394;5.454;2022-09-06T00:57:21;22.90;62.20
26821;DHT22;37186;51.394;5.454;2022-09-06T01:00:26;22.80;62.20
26821;DHT22;37186;51.394;5.454;2022-09-06T01:03:27;22.90;62.40
26821;DHT22;37186;51.394;5.454;2022-09-06T01:10:16;22.80;62.20
26821;DHT22;37186;51.394;5.454;2022-09-06T01:16:41;22.80;62.40
26821;DHT22;37186;51.394;5.454;2022-09-06T01:20:15;22.80;62.60
26821;DHT22;37186;51.394;5.454;2022-09-06T01:30:12;22.70;62.40
26821;DHT22;37186;51.394;5.454;2022-09-06T01:33:21;22.70;62.30
26821;DHT22;37186;51.394;5.454;2022-09-06T01:36:26;22.70;62.40
26821;DHT22;37186;51.394;5.454;2022-09-06T01:39:31;22.60;62.40
26821;DHT22;37186;51.394;5.454;2022-09-06T01:42:32;22.60;62.40
26821;DHT22;37186;51.394;5.454;2022-09-06T01:49:29;22.60;62.50
26821;DHT22;37186;51.394;5.454;2022-09-06T01:56:16;22.60;63.50
26821;DHT22;37186;51.394;5.454;2022-09-06T02:06:07;22.50;63.20
26821;DHT22;37186;51.394;5.454;2022-09-06T02:09:11;22.50;63.70
26821;DHT22;37186;51.394;5.454;2022-09-06T02:12:17;22.50;64.00
26821;DHT22;37186;51.394;5.454;2022-09-06T02:15:32;22.50;63.40
26821;DHT22;37186;51.394;5.454;2022-09-06T02:18:42;22.40;63.80
26821;DHT22;37186;51.394;5.454;2022-09-06T02:21:45;22.40;63.50
26821;DHT22;37186;51.394;5.454;2022-09-06T02:24:48;22.40;63.70
26821;DHT22;37186;51.394;5.454;2022-09-06T02:27:50;22.30;63.30
26821;DHT22;37186;51.394;5.454;2022-09-06T02:30:56;22.30;63.60
26821;DHT22;37186;51.394;5.454;2022-09-06T02:33:58;22.30;63.60
26821;DHT22;37186;51.394;5.454;2022-09-06T02:37:00;22.30;63.60
26821;DHT22;37186;51.394;5.454;2022-09-06T02:40:00;22.30;63.80
26821;DHT22;37186;51.394;5.454;2022-09-06T02:43:01;22.20;63.70
26821;DHT22;37186;51.394;5.454;2022-09-06T02:46:01;22.20;63.60
26821;DHT22;37186;51.394;5.454;2022-09-06T02:49:02;22.20;65.10
26821;DHT22;37186;51.394;5.454;2022-09-06T02:52:03;22.20;64.00
26821;DHT22;37186;51.394;5.454;2022-09-06T02:55:04;22.20;63.60
26821;DHT22;37186;51.394;5.454;2022-09-06T02:58:06;22.20;64.50
26821;DHT22;37186;51.394;5.454;2022-09-06T03:01:06;22.10;63.70
26821;DHT22;37186;51.394;5.454;2022-09-06T03:04:07;22.10;64.20
26821;DHT22;37186;51.394;5.454;2022-09-06T03:07:07;22.00;63.70
26821;DHT22;37186;51.394;5.454;2022-09-06T03:10:08;22.00;63.70
26821;DHT22;37186;51.394;5.454;2022-09-06T03:13:09;22.00;64.00
26821;DHT22;37186;51.394;5.454;2022-09-06T03:16:09;22.00;63.80
26821;DHT22;37186;51.394;5.454;2022-09-06T03:19:10;22.00;64.00
26821;DHT22;37186;51.394;5.454;2022-09-06T03:22:10;21.90;64.20
26821;DHT22;37186;51.394;5.454;2022-09-06T03:25:11;21.90;63.70
26821;DHT22;37186;51.394;5.454;2022-09-06T03:28:11;21.90;63.70
26821;DHT22;37186;51.394;5.454;2022-09-06T03:31:12;21.90;63.90
26821;DHT22;37186;51.394;5.454;2022-09-06T03:34:12;21.90;63.90
26821;DHT22;37186;51.394;5.454;2022-09-06T03:37:13;21.80;64.20
26821;DHT22;37186;51.394;5.454;2022-09-06T03:40:13;21.80;64.40
26821;DHT22;37186;51.394;5.454;2022-09-06T03:43:15;21.80;63.90
26821;DHT22;37186;51.394;5.454;2022-09-06T03:46:16;21.80;64.20
26821;DHT22;37186;51.394;5.454;2022-09-06T03:49:17;21.80;64.50
26821;DHT22;37186;51.394;5.454;2022-09-06T03:52:18;21.70;64.40
26821;DHT22;37186;51.394;5.454;2022-09-06T03:55:18;21.70;64.10
26821;DHT22;37186;51.394;5.454;2022-09-06T03:58:20;21.70;64.30
26821;DHT22;37186;51.394;5.454;2022-09-06T04:01:21;21.70;65.20
26821;DHT22;37186;51.394;5.454;2022-09-06T04:04:21;21.60;64.70
26821;DHT22;37186;51.394;5.454;2022-09-06T04:07:22;21.60;64.20
26821;DHT22;37186;51.394;5.454;2022-09-06T04:10:22;21.60;64.30
26821;DHT22;37186;51.394;5.454;2022-09-06T04:13:24;21.50;64.40
26821;DHT22;37186;51.394;5.454;2022-09-06T04:16:25;21.60;64.40
26821;DHT22;37186;51.394;5.454;2022-09-06T04:19:25;21.50;64.30
26821;DHT22;37186;51.394;5.454;2022-09-06T04:22:26;21.50;64.50
26821;DHT22;37186;51.394;5.454;2022-09-06T04:25:26;21.40;64.20
26821;DHT22;37186;51.394;5.454;2022-09-06T04:28:27;21.40;65.00
26821;DHT22;37186;51.394;5.454;2022-09-06T04:31:27;21.40;64.40
26821;DHT22;37186;51.394;5.454;2022-09-06T04:34:28;21.40;64.40
26821;DHT22;37186;51.394;5.454;2022-09-06T04:37:28;21.30;64.50
26821;DHT22;37186;51.394;5.454;2022-09-06T04:40:29;21.30;64.40
26821;DHT22;37186;51.394;5.454;2022-09-06T04:43:29;21.30;64.50
26821;DHT22;37186;51.394;5.454;2022-09-06T04:46:30;21.30;64.40
26821;DHT22;37186;51.394;5.454;2022-09-06T04:49:31;21.30;64.50
26821;DHT22;37186;51.394;5.454;2022-09-06T04:52:31;21.20;64.40
26821;DHT22;37186;51.394;5.454;2022-09-06T04:55:32;21.20;64.40
26821;DHT22;37186;51.394;5.454;2022-09-06T04:58:33;21.20;64.30
26821;DHT22;37186;51.394;5.454;2022-09-06T05:01:34;21.20;64.60
26821;DHT22;37186;51.394;5.454;2022-09-06T05:04:34;21.10;64.30
26821;DHT22;37186;51.394;5.454;2022-09-06T05:07:35;21.10;64.40
26821;DHT22;37186;51.394;5.454;2022-09-06T05:10:35;21.10;64.40
26821;DHT22;37186;51.394;5.454;2022-09-06T05:13:36;21.10;64.50
26821;DHT22;37186;51.394;5.454;2022-09-06T05:16:37;21.00;64.50
26821;DHT22;37186;51.394;5.454;2022-09-06T05:19:37;21.00;64.50
26821;DHT22;37186;51.394;5.454;2022-09-06T05:22:39;21.00;64.50
26821;DHT22;37186;51.394;5.454;2022-09-06T05:25:39;20.90;64.60
26821;DHT22;37186;51.394;5.454;2022-09-06T05:28:40;20.90;65.00
26821;DHT22;37186;51.394;5.454;2022-09-06T05:31:41;20.90;64.70
26821;DHT22;37186;51.394;5.454;2022-09-06T05:34:41;20.80;64.60
26821;DHT22;37186;51.394;5.454;2022-09-06T05:37:42;20.80;64.70
26821;DHT22;37186;51.394;5.454;2022-09-06T05:40:42;20.80;64.60
26821;DHT22;37186;51.394;5.454;2022-09-06T05:43:43;20.80;64.60
26821;DHT22;37186;51.394;5.454;2022-09-06T05:46:44;20.80;64.70
26821;DHT22;37186;51.394;5.454;2022-09-06T05:49:45;20.70;64.70
26821;DHT22;37186;51.394;5.454;2022-09-06T05:52:45;20.70;64.70
26821;DHT22;37186;51.394;5.454;2022-09-06T05:55:46;20.70;64.60
26821;DHT22;37186;51.394;5.454;2022-09-06T05:58:47;20.70;65.00
26821;DHT22;37186;51.394;5.454;2022-09-06T06:01:49;20.70;64.70
26821;DHT22;37186;51.394;5.454;2022-09-06T06:04:50;20.70;64.80
26821;DHT22;37186;51.394;5.454;2022-09-06T06:07:53;20.70;64.90
26821;DHT22;37186;51.394;5.454;2022-09-06T06:10:58;20.70;65.00
26821;DHT22;37186;51.394;5.454;2022-09-06T06:13:59;20.60;65.00
26821;DHT22;37186;51.394;5.454;2022-09-06T06:17:00;20.70;65.10
26821;DHT22;37186;51.394;5.454;2022-09-06T06:20:01;20.60;64.90
26821;DHT22;37186;51.394;5.454;2022-09-06T06:23:02;20.60;65.10
26821;DHT22;37186;51.394;5.454;2022-09-06T06:26:03;20.60;65.60
26821;DHT22;37186;51.394;5.454;2022-09-06T06:29:04;20.60;65.10
26821;DHT22;37186;51.394;5.454;2022-09-06T06:32:07;20.60;65.00
26821;DHT22;37186;51.394;5.454;2022-09-06T06:35:08;20.60;64.90
26821;DHT22;37186;51.394;5.454;2022-09-06T06:38:08;20.60;65.00
26821;DHT22;37186;51.394;5.454;2022-09-06T06:41:11;20.60;64.80
26821;DHT22;37186;51.394;5.454;2022-09-06T06:44:12;20.60;65.00
26821;DHT22;37186;51.394;5.454;2022-09-06T06:47:12;20.60;66.10
26821;DHT22;37186;51.394;5.454;2022-09-06T06:50:13;20.70;65.70
26821;DHT22;37186;51.394;5.454;2022-09-06T06:53:14;20.70;64.90
26821;DHT22;37186;51.394;5.454;2022-09-06T06:56:30;20.70;64.90
26821;DHT22;37186;51.394;5.454;2022-09-06T06:59:31;20.70;64.90
26821;DHT22;37186;51.394;5.454;2022-09-06T07:02:32;20.70;64.70
26821;DHT22;37186;51.394;5.454;2022-09-06T07:05:33;20.70;65.10
26821;DHT22;37186;51.394;5.454;2022-09-06T07:08:34;20.70;64.70
26821;DHT22;37186;51.394;5.454;2022-09-06T07:11:36;20.70;64.80
26821;DHT22;37186;51.394;5.454;2022-09-06T07:14:37;20.70;64.60
26821;DHT22;37186;51.394;5.454;2022-09-06T07:17:38;20.70;64.80
26821;DHT22;37186;51.394;5.454;2022-09-06T07:20:39;20.80;64.80
26821;DHT22;37186;51.394;5.454;2022-09-06T07:23:39;20.80;64.70
26821;DHT22;37186;51.394;5.454;2022-09-06T07:26:40;20.80;64.90
26821;DHT22;37186;51.394;5.454;2022-09-06T07:29:40;20.80;64.90
26821;DHT22;37186;51.394;5.454;2022-09-06T07:32:41;20.90;65.10
26821;DHT22;37186;51.394;5.454;2022-09-06T07:35:41;20.90;65.10
26821;DHT22;37186;51.394;5.454;2022-09-06T07:38:42;20.90;65.00
26821;DHT22;37186;51.394;5.454;2022-09-06T07:41:46;20.90;64.90
26821;DHT22;37186;51.394;5.454;2022-09-06T07:44:47;20.90;65.10
26821;DHT22;37186;51.394;5.454;2022-09-06T07:47:54;21.00;65.10
26821;DHT22;37186;51.394;5.454;2022-09-06T07:51:13;21.00;65.10
26821;DHT22;37186;51.394;5.454;2022-09-06T07:54:15;21.00;65.00
26821;DHT22;37186;51.394;5.454;2022-09-06T07:57:16;21.10;65.10
26821;DHT22;37186;51.394;5.454;2022-09-06T08:00:16;21.10;65.10
26821;DHT22;37186;51.394;5.454;2022-09-06T08:03:17;21.10;65.00
26821;DHT22;37186;51.394;5.454;2022-09-06T08:06:18;21.20;65.20
26821;DHT22;37186;51.394;5.454;2022-09-06T08:09:19;21.20;65.20
26821;DHT22;37186;51.394;5.454;2022-09-06T08:12:19;21.20;65.40
26821;DHT22;37186;51.394;5.454;2022-09-06T08:15:20;21.30;65.30
26821;DHT22;37186;51.394;5.454;2022-09-06T08:18:21;21.30;65.30
26821;DHT22;37186;51.394;5.454;2022-09-06T08:21:22;21.30;65.30
26821;DHT22;37186;51.394;5.454;2022-09-06T08:24:23;21.40;65.40
26821;DHT22;37186;51.394;5.454;2022-09-06T08:27:24;21.40;65.30
26821;DHT22;37186;51.394;5.454;2022-09-06T08:30:24;21.40;65.70
26821;DHT22;37186;51.394;5.454;2022-09-06T08:33:26;21.40;65.30
26821;DHT22;37186;51.394;5.454;2022-09-06T08:36:27;21.40;65.20
26821;DHT22;37186;51.394;5.454;2022-09-06T08:39:29;21.50;65.30
26821;DHT22;37186;51.394;5.454;2022-09-06T08:42:30;21.50;66.60
26821;DHT22;37186;51.394;5.454;2022-09-06T08:45:30;21.50;65.70
26821;DHT22;37186;51.394;5.454;2022-09-06T08:48:33;21.60;65.60
26821;DHT22;37186;51.394;5.454;2022-09-06T08:51:57;21.60;65.80
26821;DHT22;37186;51.394;5.454;2022-09-06T08:58:34;21.70;65.50
26821;DHT22;37186;51.394;5.454;2022-09-06T09:01:43;21.70;65.60
26821;DHT22;37186;51.394;5.454;2022-09-06T09:04:54;21.70;65.60
26821;DHT22;37186;51.394;5.454;2022-09-06T09:11:22;21.80;66.00
26821;DHT22;37186;51.394;5.454;2022-09-06T09:14:29;21.80;66.00
26821;DHT22;37186;51.394;5.454;2022-09-06T09:17:35;21.80;65.80
26821;DHT22;37186;51.394;5.454;2022-09-06T09:20:37;21.80;65.70
26821;DHT22;37186;51.394;5.454;2022-09-06T09:23:38;21.90;65.70
26821;DHT22;37186;51.394;5.454;2022-09-06T09:27:06;21.90;65.70
26821;DHT22;37186;51.394;5.454;2022-09-06T09:30:08;21.90;65.60
26821;DHT22;37186;51.394;5.454;2022-09-06T09:33:29;22.00;65.60
26821;DHT22;37186;51.394;5.454;2022-09-06T09:36:31;22.00;65.60
26821;DHT22;37186;51.394;5.454;2022-09-06T09:39:37;22.00;65.90
26821;DHT22;37186;51.394;5.454;2022-09-06T09:42:38;22.00;66.50
26821;DHT22;37186;51.394;5.454;2022-09-06T09:45:39;22.10;66.00
26821;DHT22;37186;51.394;5.454;2022-09-06T09:49:08;22.10;65.90
26821;DHT22;37186;51.394;5.454;2022-09-06T09:52:11;22.20;65.80
26821;DHT22;37186;51.394;5.454;2022-09-06T09:55:13;22.20;65.80
26821;DHT22;37186;51.394;5.454;2022-09-06T09:58:34;22.30;65.90
26821;DHT22;37186;51.394;5.454;2022-09-06T10:01:37;22.30;66.70
26821;DHT22;37186;51.394;5.454;2022-09-06T10:04:44;22.30;65.90
26821;DHT22;37186;51.394;5.454;2022-09-06T10:07:51;22.30;66.00
26821;DHT22;37186;51.394;5.454;2022-09-06T10:10:52;22.40;66.10
26821;DHT22;37186;51.394;5.454;2022-09-06T10:14:09;22.50;66.10
26821;DHT22;37186;51.394;5.454;2022-09-06T10:17:27;22.50;66.20
26821;DHT22;37186;51.394;5.454;2022-09-06T10:20:33;22.50;66.20
26821;DHT22;37186;51.394;5.454;2022-09-06T10:27:13;22.60;66.30
26821;DHT22;37186;51.394;5.454;2022-09-06T10:30:18;22.70;66.30
26821;DHT22;37186;51.394;5.454;2022-09-06T10:33:25;22.70;66.20
26821;DHT22;37186;51.394;5.454;2022-09-06T10:36:35;22.80;66.30
26821;DHT22;37186;51.394;5.454;2022-09-06T10:39:48;22.90;66.30
26821;DHT22;37186;51.394;5.454;2022-09-06T10:42:56;22.90;66.30
26821;DHT22;37186;51.394;5.454;2022-09-06T10:46:02;22.90;66.30
26821;DHT22;37186;51.394;5.454;2022-09-06T10:49:07;23.00;66.30
26821;DHT22;37186;51.394;5.454;2022-09-06T10:52:17;23.10;66.80
26821;DHT22;37186;51.394;5.454;2022-09-06T10:55:19;23.10;66.60
26821;DHT22;37186;51.394;5.454;2022-09-06T10:58:28;23.20;66.80
26821;DHT22;37186;51.394;5.454;2022-09-06T11:01:36;23.20;66.80
26821;DHT22;37186;51.394;5.454;2022-09-06T11:04:40;23.30;66.60
26821;DHT22;37186;51.394;5.454;2022-09-06T11:07:45;23.30;66.70
26821;DHT22;37186;51.394;5.454;2022-09-06T11:10:50;23.40;66.70
26821;DHT22;37186;51.394;5.454;2022-09-06T11:13:54;23.50;66.70
26821;DHT22;37186;51.394;5.454;2022-09-06T11:17:03;23.60;66.80
26821;DHT22;37186;51.394;5.454;2022-09-06T11:20:10;23.60;66.70
26821;DHT22;37186;51.394;5.454;2022-09-06T11:26:41;23.70;66.40
26821;DHT22;37186;51.394;5.454;2022-09-06T11:29:45;23.80;66.40
26821;DHT22;37186;51.394;5.454;2022-09-06T11:32:49;23.90;66.40
26821;DHT22;37186;51.394;5.454;2022-09-06T11:35:50;23.90;66.30
26821;DHT22;37186;51.394;5.454;2022-09-06T11:38:59;24.00;66.40
26821;DHT22;37186;51.394;5.454;2022-09-06T11:42:02;24.10;66.20
26821;DHT22;37186;51.394;5.454;2022-09-06T11:51:37;24.20;65.80
26821;DHT22;37186;51.394;5.454;2022-09-06T11:54:43;24.30;65.20
26821;DHT22;37186;51.394;5.454;2022-09-06T11:57:46;24.30;65.50
26821;DHT22;37186;51.394;5.454;2022-09-06T12:04:13;24.50;65.10
26821;DHT22;37186;51.394;5.454;2022-09-06T12:07:13;24.60;64.90
26821;DHT22;37186;51.394;5.454;2022-09-06T12:20:04;24.90;65.20
26821;DHT22;37186;51.394;5.454;2022-09-06T12:23:06;24.90;64.80
26821;DHT22;37186;51.394;5.454;2022-09-06T12:26:07;24.90;65.00
26821;DHT22;37186;51.394;5.454;2022-09-06T12:29:10;25.10;64.50
26821;DHT22;37186;51.394;5.454;2022-09-06T12:32:11;25.10;64.90
26821;DHT22;37186;51.394;5.454;2022-09-06T12:35:25;25.20;65.00
26821;DHT22;37186;51.394;5.454;2022-09-06T12:38:26;25.30;65.10
26821;DHT22;37186;51.394;5.454;2022-09-06T12:41:29;25.30;65.00
26821;DHT22;37186;51.394;5.454;2022-09-06T12:47:35;25.50;65.00
26821;DHT22;37186;51.394;5.454;2022-09-06T12:50:37;25.60;65.10
26821;DHT22;37186;51.394;5.454;2022-09-06T12:53:38;25.70;65.10
26821;DHT22;37186;51.394;5.454;2022-09-06T12:56:38;25.70;64.90
26821;DHT22;37186;51.394;5.454;2022-09-06T12:59:50;25.70;64.90
26821;DHT22;37186;51.394;5.454;2022-09-06T13:06:02;25.80;64.50
26821;DHT22;37186;51.394;5.454;2022-09-06T13:09:09;25.90;64.50
26821;DHT22;37186;51.394;5.454;2022-09-06T13:12:25;26.00;64.50
26821;DHT22;37186;51.394;5.454;2022-09-06T13:15:30;26.00;64.00
26821;DHT22;37186;51.394;5.454;2022-09-06T13:18:37;26.10;63.60
26821;DHT22;37186;51.394;5.454;2022-09-06T13:21:40;26.10;63.20
26821;DHT22;37186;51.394;5.454;2022-09-06T13:24:45;26.10;63.60
26821;DHT22;37186;51.394;5.454;2022-09-06T13:27:48;26.20;63.60
26821;DHT22;37186;51.394;5.454;2022-09-06T13:31:11;26.20;63.70
26821;DHT22;37186;51.394;5.454;2022-09-06T13:34:21;26.30;63.80
26821;DHT22;37186;51.394;5.454;2022-09-06T13:37:32;26.40;63.90
26821;DHT22;37186;51.394;5.454;2022-09-06T13:40:40;26.40;63.80
26821;DHT22;37186;51.394;5.454;2022-09-06T13:43:43;26.40;63.80
26821;DHT22;37186;51.394;5.454;2022-09-06T13:46:44;26.50;63.90
26821;DHT22;37186;51.394;5.454;2022-09-06T13:49:44;26.50;63.90
26821;DHT22;37186;51.394;5.454;2022-09-06T13:52:46;26.60;63.80
26821;DHT22;37186;51.394;5.454;2022-09-06T13:55:47;26.60;63.30
26821;DHT22;37186;51.394;5.454;2022-09-06T13:58:47;26.60;62.80
26821;DHT22;37186;51.394;5.454;2022-09-06T14:01:54;26.60;63.00
26821;DHT22;37186;51.394;5.454;2022-09-06T14:04:56;26.60;63.10
26821;DHT22;37186;51.394;5.454;2022-09-06T14:07:56;26.70;63.20
26821;DHT22;37186;51.394;5.454;2022-09-06T14:10:57;26.70;63.00
26821;DHT22;37186;51.394;5.454;2022-09-06T14:13:58;26.70;62.90
26821;DHT22;37186;51.394;5.454;2022-09-06T14:16:58;26.70;62.90
26821;DHT22;37186;51.394;5.454;2022-09-06T14:19:59;26.70;62.50
26821;DHT22;37186;51.394;5.454;2022-09-06T14:22:59;26.70;62.70
26821;DHT22;37186;51.394;5.454;2022-09-06T14:26:01;26.70;62.20
26821;DHT22;37186;51.394;5.454;2022-09-06T14:29:02;26.70;61.60
26821;DHT22;37186;51.394;5.454;2022-09-06T14:32:03;26.70;62.00
26821;DHT22;37186;51.394;5.454;2022-09-06T14:35:04;26.60;62.00
26821;DHT22;37186;51.394;5.454;2022-09-06T14:38:05;26.70;62.90
26821;DHT22;37186;51.394;5.454;2022-09-06T14:41:07;26.70;61.90
26821;DHT22;37186;51.394;5.454;2022-09-06T14:44:08;26.70;62.00
26821;DHT22;37186;51.394;5.454;2022-09-06T14:47:09;26.70;62.00
26821;DHT22;37186;51.394;5.454;2022-09-06T14:50:09;26.70;61.80
26821;DHT22;37186;51.394;5.454;2022-09-06T14:53:10;26.70;61.60
26821;DHT22;37186;51.394;5.454;2022-09-06T14:56:11;26.70;61.90
26821;DHT22;37186;51.394;5.454;2022-09-06T14:59:12;26.80;62.10
26821;DHT22;37186;51.394;5.454;2022-09-06T15:02:12;26.80;61.20
26821;DHT22;37186;51.394;5.454;2022-09-06T15:05:13;26.80;61.70
26821;DHT22;37186;51.394;5.454;2022-09-06T15:08:14;26.80;61.80
26821;DHT22;37186;51.394;5.454;2022-09-06T15:11:47;26.80;61.70
26821;DHT22;37186;51.394;5.454;2022-09-06T15:14:46;26.80;61.60
26821;DHT22;37186;51.394;5.454;2022-09-06T15:17:47;26.80;61.90
26821;DHT22;37186;51.394;5.454;2022-09-06T15:20:48;26.80;61.60
26821;DHT22;37186;51.394;5.454;2022-09-06T15:23:50;26.80;62.20
26821;DHT22;37186;51.394;5.454;2022-09-06T15:26:51;26.80;61.50
26821;DHT22;37186;51.394;5.454;2022-09-06T15:29:51;26.80;61.60
26821;DHT22;37186;51.394;5.454;2022-09-06T15:32:52;26.80;61.60
26821;DHT22;37186;51.394;5.454;2022-09-06T15:35:53;26.80;61.50
26821;DHT22;37186;51.394;5.454;2022-09-06T15:38:54;26.90;61.30
26821;DHT22;37186;51.394;5.454;2022-09-06T15:41:57;26.80;61.30
26821;DHT22;37186;51.394;5.454;2022-09-06T15:44:58;26.90;61.50
26821;DHT22;37186;51.394;5.454;2022-09-06T15:47:59;26.90;61.60
26821;DHT22;37186;51.394;5.454;2022-09-06T15:51:01;26.90;61.60
26821;DHT22;37186;51.394;5.454;2022-09-06T15:54:02;26.90;61.20
26821;DHT22;37186;51.394;5.454;2022-09-06T15:57:03;26.90;61.50
26821;DHT22;37186;51.394;5.454;2022-09-06T16:00:04;26.90;61.50
26821;DHT22;37186;51.394;5.454;2022-09-06T16:03:05;27.00;61.70
26821;DHT22;37186;51.394;5.454;2022-09-06T16:06:09;27.00;61.70
26821;DHT22;37186;51.394;5.454;2022-09-06T16:09:12;27.00;61.60
26821;DHT22;37186;51.394;5.454;2022-09-06T16:12:19;27.00;61.60
26821;DHT22;37186;51.394;5.454;2022-09-06T16:15:19;27.00;61.60
26821;DHT22;37186;51.394;5.454;2022-09-06T16:18:20;27.00;61.60
26821;DHT22;37186;51.394;5.454;2022-09-06T16:21:23;27.00;61.60
26821;DHT22;37186;51.394;5.454;2022-09-06T16:24:24;27.10;61.70
26821;DHT22;37186;51.394;5.454;2022-09-06T16:27:25;27.10;61.70
26821;DHT22;37186;51.394;5.454;2022-09-06T16:30:25;27.10;61.70
26821;DHT22;37186;51.394;5.454;2022-09-06T16:33:28;27.10;61.70
26821;DHT22;37186;51.394;5.454;2022-09-06T16:36:28;27.10;61.70
26821;DHT22;37186;51.394;5.454;2022-09-06T16:39:29;27.00;61.60
26821;DHT22;37186;51.394;5.454;2022-09-06T16:42:29;27.00;61.60
26821;DHT22;37186;51.394;5.454;2022-09-06T16:45:30;27.00;61.60
26821;DHT22;37186;51.394;5.454;2022-09-06T16:48:32;27.00;61.60
26821;DHT22;37186;51.394;5.454;2022-09-06T16:51:33;27.00;61.60
26821;DHT22;37186;51.394;5.454;2022-09-06T16:54:33;27.00;61.60
26821;DHT22;37186;51.394;5.454;2022-09-06T16:57:34;27.00;61.60
26821;DHT22;37186;51.394;5.454;2022-09-06T17:00:34;27.00;61.60
26821;DHT22;37186;51.394;5.454;2022-09-06T17:03:38;27.00;61.60
26821;DHT22;37186;51.394;5.454;2022-09-06T17:06:39;27.00;61.50
26821;DHT22;37186;51.394;5.454;2022-09-06T17:09:46;26.90;61.50
26821;DHT22;37186;51.394;5.454;2022-09-06T17:12:47;26.90;61.50
26821;DHT22;37186;51.394;5.454;2022-09-06T17:15:53;26.90;61.50
26821;DHT22;37186;51.394;5.454;2022-09-06T17:19:13;26.90;61.50
26821;DHT22;37186;51.394;5.454;2022-09-06T17:22:14;26.90;61.50
26821;DHT22;37186;51.394;5.454;2022-09-06T17:25:14;26.80;61.50
26821;DHT22;37186;51.394;5.454;2022-09-06T17:28:15;26.80;61.50
26821;DHT22;37186;51.394;5.454;2022-09-06T17:31:16;26.80;61.60
26821;DHT22;37186;51.394;5.454;2022-09-06T17:34:17;26.80;61.60
26821;DHT22;37186;51.394;5.454;2022-09-06T17:37:17;26.70;61.50
26821;DHT22;37186;51.394;5.454;2022-09-06T17:40:18;26.70;61.50
26821;DHT22;37186;51.394;5.454;2022-09-06T17:43:18;26.70;61.50
26821;DHT22;37186;51.394;5.454;2022-09-06T17:46:22;26.70;61.50
26821;DHT22;37186;51.394;5.454;2022-09-06T17:49:23;26.70;61.60
26821;DHT22;37186;51.394;5.454;2022-09-06T17:52:24;26.70;61.60
26821;DHT22;37186;51.394;5.454;2022-09-06T17:55:25;26.60;61.50
26821;DHT22;37186;51.394;5.454;2022-09-06T17:58:28;26.60;61.60
26821;DHT22;37186;51.394;5.454;2022-09-06T18:01:31;26.60;61.70
26821;DHT22;37186;51.394;5.454;2022-09-06T18:04:34;26.50;61.70
26821;DHT22;37186;51.394;5.454;2022-09-06T18:07:35;26.50;61.80
26821;DHT22;37186;51.394;5.454;2022-09-06T18:10:37;26.50;61.90
26821;DHT22;37186;51.394;5.454;2022-09-06T18:13:38;26.40;61.80
26821;DHT22;37186;51.394;5.454;2022-09-06T18:16:39;26.40;61.70
26821;DHT22;37186;51.394;5.454;2022-09-06T18:19:39;26.40;61.80
26821;DHT22;37186;51.394;5.454;2022-09-06T18:22:40;26.30;61.80
26821;DHT22;37186;51.394;5.454;2022-09-06T18:25:40;26.20;61.80
26821;DHT22;37186;51.394;5.454;2022-09-06T18:28:41;26.20;61.80
26821;DHT22;37186;51.394;5.454;2022-09-06T18:31:41;26.20;61.80
26821;DHT22;37186;51.394;5.454;2022-09-06T18:34:42;26.10;61.80
26821;DHT22;37186;51.394;5.454;2022-09-06T18:37:43;26.10;61.80
26821;DHT22;37186;51.394;5.454;2022-09-06T18:40:54;26.00;61.80
26821;DHT22;37186;51.394;5.454;2022-09-06T18:43:56;26.00;61.90
26821;DHT22;37186;51.394;5.454;2022-09-06T18:47:04;25.90;62.00
26821;DHT22;37186;51.394;5.454;2022-09-06T18:50:05;25.90;61.90
26821;DHT22;37186;51.394;5.454;2022-09-06T18:53:07;25.90;61.90
26821;DHT22;37186;51.394;5.454;2022-09-06T18:56:08;25.80;62.60
26821;DHT22;37186;51.394;5.454;2022-09-06T18:59:08;25.70;61.80
26821;DHT22;37186;51.394;5.454;2022-09-06T19:02:10;25.70;61.90
26821;DHT22;37186;51.394;5.454;2022-09-06T19:05:10;25.70;62.00
26821;DHT22;37186;51.394;5.454;2022-09-06T19:08:11;25.60;62.00
26821;DHT22;37186;51.394;5.454;2022-09-06T19:11:13;25.60;62.90
26821;DHT22;37186;51.394;5.454;2022-09-06T19:14:15;25.60;62.00
26821;DHT22;37186;51.394;5.454;2022-09-06T19:17:16;25.60;62.20
26821;DHT22;37186;51.394;5.454;2022-09-06T19:20:18;25.50;62.00
26821;DHT22;37186;51.394;5.454;2022-09-06T19:23:19;25.50;62.20
26821;DHT22;37186;51.394;5.454;2022-09-06T19:26:22;25.50;62.10
26821;DHT22;37186;51.394;5.454;2022-09-06T19:29:23;25.40;62.20
26821;DHT22;37186;51.394;5.454;2022-09-06T19:32:23;25.40;62.10
26821;DHT22;37186;51.394;5.454;2022-09-06T19:35:24;25.40;62.20
26821;DHT22;37186;51.394;5.454;2022-09-06T19:38:24;25.30;62.10
26821;DHT22;37186;51.394;5.454;2022-09-06T19:41:25;25.30;62.10
26821;DHT22;37186;51.394;5.454;2022-09-06T19:44:26;25.30;62.10
26821;DHT22;37186;51.394;5.454;2022-09-06T19:47:28;25.30;62.10
26821;DHT22;37186;51.394;5.454;2022-09-06T19:50:32;25.30;62.20
26821;DHT22;37186;51.394;5.454;2022-09-06T19:53:34;25.20;62.10
26821;DHT22;37186;51.394;5.454;2022-09-06T19:56:35;25.20;62.30
26821;DHT22;37186;51.394;5.454;2022-09-06T19:59:36;25.20;62.20
26821;DHT22;37186;51.394;5.454;2022-09-06T20:02:38;25.10;62.20
26821;DHT22;37186;51.394;5.454;2022-09-06T20:05:39;25.10;62.10
26821;DHT22;37186;51.394;5.454;2022-09-06T20:08:39;25.00;62.10
26821;DHT22;37186;51.394;5.454;2022-09-06T20:11:40;25.00;62.20
26821;DHT22;37186;51.394;5.454;2022-09-06T20:14:41;24.90;62.10
26821;DHT22;37186;51.394;5.454;2022-09-06T20:17:41;24.90;62.20
26821;DHT22;37186;51.394;5.454;2022-09-06T20:20:42;24.90;62.30
26821;DHT22;37186;51.394;5.454;2022-09-06T20:23:48;24.90;62.20